Terminal Aerodrome Forecast
Issued by NWS

Current Version | Previous Version | Graphics & Text | Print | Product List | Glossary On
Versions: 1 2 3 4 5 6 7 8 9 10 11 12 13 14 15 16 17 18 19 20 21 22 23 24 25
000
FTUS41 KPBZ 311100
TAFHLG
TAF
KHLG 311138Z 3112/0112 20005KT 2SM SHRA BR SCT007 OVC015
      TEMPO 3112/3114 1SM -RA BR BKN007
     FM312000 21008KT 5SM -SHRA VCTS OVC020CB
     FM312300 22005KT 6SM -SHRA OVC020
     FM010600 20005KT 4SM BR OVC008=

USA.gov is the U.S. government's official web portal to all federal, state and local government web resources and services.